sensor_id;sensor_type;location;lat;lon;timestamp;pressure;altitude;pressure_sealevel;temperature;humidity
84841;BME280;75088;53.114;18.040;2024-03-17T00:00:16;101380.23;;;4.62;66.95
84841;BME280;75088;53.114;18.040;2024-03-17T00:01:43;101380.55;;;4.60;66.08
84841;BME280;75088;53.114;18.040;2024-03-17T00:02:50;101377.90;;;4.59;66.10
84841;BME280;75088;53.114;18.040;2024-03-17T00:03:56;101378.96;;;4.60;65.91
84841;BME280;75088;53.114;18.040;2024-03-17T00:05:05;101383.53;;;4.59;65.90
84841;BME280;75088;53.114;18.040;2024-03-17T00:06:12;101379.31;;;4.60;66.10
84841;BME280;75088;53.114;18.040;2024-03-17T00:07:18;101382.48;;;4.60;65.70
84841;BME280;75088;53.114;18.040;2024-03-17T00:08:25;101376.30;;;4.59;65.76
84841;BME280;75088;53.114;18.040;2024-03-17T00:09:31;101381.40;;;4.58;65.45
84841;BME280;75088;53.114;18.040;2024-03-17T00:10:39;101376.65;;;4.59;65.35
84841;BME280;75088;53.114;18.040;2024-03-17T00:11:45;101382.45;;;4.59;65.63
84841;BME280;75088;53.114;18.040;2024-03-17T00:12:52;101378.75;;;4.58;65.68
84841;BME280;75088;53.114;18.040;2024-03-17T00:13:58;101383.85;;;4.58;65.74
84841;BME280;75088;53.114;18.040;2024-03-17T00:15:06;101374.35;;;4.58;66.06
84841;BME280;75088;53.114;18.040;2024-03-17T00:16:13;101378.02;;;4.57;65.53
84841;BME280;75088;53.114;18.040;2024-03-17T00:17:19;101378.01;;;4.57;65.50
84841;BME280;75088;53.114;18.040;2024-03-17T00:18:27;101370.77;;;4.56;65.42
84841;BME280;75088;53.114;18.040;2024-03-17T00:19:33;101371.28;;;4.55;65.32
84841;BME280;75088;53.114;18.040;2024-03-17T00:20:40;101369.52;;;4.55;65.66
84841;BME280;75088;53.114;18.040;2024-03-17T00:21:46;101373.35;;;4.53;64.81
84841;BME280;75088;53.114;18.040;2024-03-17T00:22:52;101368.80;;;4.55;64.96
84841;BME280;75088;53.114;18.040;2024-03-17T00:23:59;101373.34;;;4.53;65.19
84841;BME280;75088;53.114;18.040;2024-03-17T00:25:08;101372.61;;;4.53;65.52
84841;BME280;75088;53.114;18.040;2024-03-17T00:26:15;101367.16;;;4.52;64.85
84841;BME280;75088;53.114;18.040;2024-03-17T00:27:21;101362.98;;;4.54;65.07
84841;BME280;75088;53.114;18.040;2024-03-17T00:28:28;101365.32;;;4.56;65.52
84841;BME280;75088;53.114;18.040;2024-03-17T00:29:34;101369.89;;;4.56;65.20
84841;BME280;75088;53.114;18.040;2024-03-17T00:30:41;101365.02;;;4.58;65.21
84841;BME280;75088;53.114;18.040;2024-03-17T00:31:47;101361.52;;;4.59;65.15
84841;BME280;75088;53.114;18.040;2024-03-17T00:32:53;101361.55;;;4.60;65.37
84841;BME280;75088;53.114;18.040;2024-03-17T00:34:00;101362.46;;;4.61;65.25
84841;BME280;75088;53.114;18.040;2024-03-17T00:35:09;101362.50;;;4.63;64.26
84841;BME280;75088;53.114;18.040;2024-03-17T00:36:19;101362.03;;;4.66;64.23
84841;BME280;75088;53.114;18.040;2024-03-17T00:37:25;101355.73;;;4.68;64.09
84841;BME280;75088;53.114;18.040;2024-03-17T00:38:32;101359.31;;;4.71;63.75
84841;BME280;75088;53.114;18.040;2024-03-17T00:39:39;101352.00;;;4.74;64.10
84841;BME280;75088;53.114;18.040;2024-03-17T00:40:45;101360.30;;;4.75;63.81
84841;BME280;75088;53.114;18.040;2024-03-17T00:41:52;101355.28;;;4.79;63.51
84841;BME280;75088;53.114;18.040;2024-03-17T00:42:58;101354.61;;;4.80;63.90
84841;BME280;75088;53.114;18.040;2024-03-17T00:44:05;101355.88;;;4.81;63.76
84841;BME280;75088;53.114;18.040;2024-03-17T00:45:12;101353.42;;;4.82;63.76
84841;BME280;75088;53.114;18.040;2024-03-17T00:46:20;101354.67;;;4.83;64.04
84841;BME280;75088;53.114;18.040;2024-03-17T00:47:26;101360.48;;;4.83;64.09
84841;BME280;75088;53.114;18.040;2024-03-17T00:48:33;101356.10;;;4.83;64.05
84841;BME280;75088;53.114;18.040;2024-03-17T00:49:39;101361.02;;;4.83;64.22
84841;BME280;75088;53.114;18.040;2024-03-17T00:50:45;101361.18;;;4.82;64.13
84841;BME280;75088;53.114;18.040;2024-03-17T00:51:52;101359.59;;;4.82;64.29
84841;BME280;75088;53.114;18.040;2024-03-17T00:52:59;101358.89;;;4.82;63.98
84841;BME280;75088;53.114;18.040;2024-03-17T00:54:05;101356.28;;;4.84;64.17
84841;BME280;75088;53.114;18.040;2024-03-17T00:55:12;101355.92;;;4.83;64.14
84841;BME280;75088;53.114;18.040;2024-03-17T00:56:20;101353.47;;;4.84;64.33
84841;BME280;75088;53.114;18.040;2024-03-17T00:57:26;101355.41;;;4.84;64.51
84841;BME280;75088;53.114;18.040;2024-03-17T00:58:33;101358.42;;;4.85;64.19
84841;BME280;75088;53.114;18.040;2024-03-17T00:59:39;101354.73;;;4.86;63.97
84841;BME280;75088;53.114;18.040;2024-03-17T01:00:47;101354.24;;;4.87;64.16
84841;BME280;75088;53.114;18.040;2024-03-17T01:01:54;101354.42;;;4.87;63.92
84841;BME280;75088;53.114;18.040;2024-03-17T01:03:01;101350.23;;;4.88;64.21
84841;BME280;75088;53.114;18.040;2024-03-17T01:04:07;101346.55;;;4.89;64.35
84841;BME280;75088;53.114;18.040;2024-03-17T01:05:14;101353.25;;;4.90;63.85
84841;BME280;75088;53.114;18.040;2024-03-17T01:06:20;101352.73;;;4.90;63.93
84841;BME280;75088;53.114;18.040;2024-03-17T01:07:26;101346.40;;;4.90;63.99
84841;BME280;75088;53.114;18.040;2024-03-17T01:08:32;101343.06;;;4.91;64.00
84841;BME280;75088;53.114;18.040;2024-03-17T01:09:39;101342.20;;;4.93;64.12
84841;BME280;75088;53.114;18.040;2024-03-17T01:10:47;101345.20;;;4.93;63.95
84841;BME280;75088;53.114;18.040;2024-03-17T01:11:54;101342.04;;;4.93;63.80
84841;BME280;75088;53.114;18.040;2024-03-17T01:13:01;101343.30;;;4.94;64.02
84841;BME280;75088;53.114;18.040;2024-03-17T01:14:07;101338.37;;;4.95;64.10
84841;BME280;75088;53.114;18.040;2024-03-17T01:15:13;101338.58;;;4.96;64.18
84841;BME280;75088;53.114;18.040;2024-03-17T01:16:20;101344.75;;;4.96;64.15
84841;BME280;75088;53.114;18.040;2024-03-17T01:17:27;101340.70;;;4.96;64.46
84841;BME280;75088;53.114;18.040;2024-03-17T01:18:34;101341.23;;;4.96;64.53
84841;BME280;75088;53.114;18.040;2024-03-17T01:19:42;101345.10;;;4.96;64.23
84841;BME280;75088;53.114;18.040;2024-03-17T01:20:48;101336.66;;;4.97;64.44
84841;BME280;75088;53.114;18.040;2024-03-17T01:21:54;101339.81;;;4.96;64.54
84841;BME280;75088;53.114;18.040;2024-03-17T01:23:01;101343.16;;;4.96;64.61
84841;BME280;75088;53.114;18.040;2024-03-17T01:24:07;101340.36;;;4.97;64.73
84841;BME280;75088;53.114;18.040;2024-03-17T01:25:14;101344.98;;;4.99;64.96
84841;BME280;75088;53.114;18.040;2024-03-17T01:26:21;101340.90;;;4.98;65.09
84841;BME280;75088;53.114;18.040;2024-03-17T01:27:27;101344.98;;;4.98;65.21
84841;BME280;75088;53.114;18.040;2024-03-17T01:28:33;101339.00;;;4.99;65.24
84841;BME280;75088;53.114;18.040;2024-03-17T01:29:39;101340.09;;;5.00;65.26
84841;BME280;75088;53.114;18.040;2024-03-17T01:30:46;101345.70;;;5.00;65.34
84841;BME280;75088;53.114;18.040;2024-03-17T01:31:52;101338.52;;;5.01;65.63
84841;BME280;75088;53.114;18.040;2024-03-17T01:32:58;101340.65;;;5.02;65.56
84841;BME280;75088;53.114;18.040;2024-03-17T01:34:05;101335.75;;;5.03;65.66
84841;BME280;75088;53.114;18.040;2024-03-17T01:35:12;101341.77;;;5.04;65.72
84841;BME280;75088;53.114;18.040;2024-03-17T01:36:19;101333.87;;;5.06;65.82
84841;BME280;75088;53.114;18.040;2024-03-17T01:37:25;101336.00;;;5.06;65.87
84841;BME280;75088;53.114;18.040;2024-03-17T01:38:31;101341.14;;;5.08;65.93
84841;BME280;75088;53.114;18.040;2024-03-17T01:39:39;101338.15;;;5.08;66.07
84841;BME280;75088;53.114;18.040;2024-03-17T01:40:45;101332.53;;;5.08;66.08
84841;BME280;75088;53.114;18.040;2024-03-17T01:41:52;101337.63;;;5.08;66.24
84841;BME280;75088;53.114;18.040;2024-03-17T01:42:58;101334.65;;;5.09;66.43
84841;BME280;75088;53.114;18.040;2024-03-17T01:44:05;101338.00;;;5.09;66.61
84841;BME280;75088;53.114;18.040;2024-03-17T01:45:28;101333.61;;;5.09;66.67
84841;BME280;75088;53.114;18.040;2024-03-17T01:46:35;101327.45;;;5.09;66.84
84841;BME280;75088;53.114;18.040;2024-03-17T01:47:42;101319.88;;;5.09;66.86
84841;BME280;75088;53.114;18.040;2024-03-17T01:48:48;101322.52;;;5.10;67.00
84841;BME280;75088;53.114;18.040;2024-03-17T01:49:55;101320.95;;;5.11;67.08
84841;BME280;75088;53.114;18.040;2024-03-17T01:51:02;101316.73;;;5.11;67.25
84841;BME280;75088;53.114;18.040;2024-03-17T01:52:09;101320.43;;;5.12;67.53
84841;BME280;75088;53.114;18.040;2024-03-17T01:53:16;101321.49;;;5.12;67.44
84841;BME280;75088;53.114;18.040;2024-03-17T01:54:22;101317.63;;;5.12;67.47
84841;BME280;75088;53.114;18.040;2024-03-17T01:55:29;101323.09;;;5.12;67.51
84841;BME280;75088;53.114;18.040;2024-03-17T01:56:36;101330.84;;;5.12;67.82
84841;BME280;75088;53.114;18.040;2024-03-17T01:57:42;101328.92;;;5.13;67.72
84841;BME280;75088;53.114;18.040;2024-03-17T01:58:49;101326.80;;;5.13;67.85
84841;BME280;75088;53.114;18.040;2024-03-17T01:59:55;101333.15;;;5.13;67.77
84841;BME280;75088;53.114;18.040;2024-03-17T02:01:02;101328.58;;;5.13;67.86
84841;BME280;75088;53.114;18.040;2024-03-17T02:02:09;101329.62;;;5.13;67.80
84841;BME280;75088;53.114;18.040;2024-03-17T02:03:16;101329.98;;;5.13;67.72
84841;BME280;75088;53.114;18.040;2024-03-17T02:04:22;101326.29;;;5.13;67.91
84841;BME280;75088;53.114;18.040;2024-03-17T02:05:29;101334.56;;;5.13;67.76
84841;BME280;75088;53.114;18.040;2024-03-17T02:06:35;101327.00;;;5.14;67.59
84841;BME280;75088;53.114;18.040;2024-03-17T02:07:41;101321.89;;;5.14;67.49
84841;BME280;75088;53.114;18.040;2024-03-17T02:08:52;101332.47;;;5.14;67.30
84841;BME280;75088;53.114;18.040;2024-03-17T02:09:58;101324.91;;;5.15;66.98
84841;BME280;75088;53.114;18.040;2024-03-17T02:11:05;101330.73;;;5.15;66.97
84841;BME280;75088;53.114;18.040;2024-03-17T02:12:16;101327.91;;;5.16;66.77
84841;BME280;75088;53.114;18.040;2024-03-17T02:13:24;101320.17;;;5.16;66.72
84841;BME280;75088;53.114;18.040;2024-03-17T02:14:31;101324.94;;;5.16;66.55
84841;BME280;75088;53.114;18.040;2024-03-17T02:15:38;101329.17;;;5.17;66.15
84841;BME280;75088;53.114;18.040;2024-03-17T02:16:44;101322.15;;;5.17;65.85
84841;BME280;75088;53.114;18.040;2024-03-17T02:17:50;101330.77;;;5.17;65.56
84841;BME280;75088;53.114;18.040;2024-03-17T02:18:57;101322.35;;;5.19;65.97
84841;BME280;75088;53.114;18.040;2024-03-17T02:20:06;101324.48;;;5.19;65.72
84841;BME280;75088;53.114;18.040;2024-03-17T02:21:13;101326.44;;;5.20;65.44
84841;BME280;75088;53.114;18.040;2024-03-17T02:22:20;101322.55;;;5.20;65.09
84841;BME280;75088;53.114;18.040;2024-03-17T02:23:27;101316.57;;;5.22;65.23
84841;BME280;75088;53.114;18.040;2024-03-17T02:24:34;101321.16;;;5.22;64.98
84841;BME280;75088;53.114;18.040;2024-03-17T02:25:40;101316.77;;;5.23;65.07
84841;BME280;75088;53.114;18.040;2024-03-17T02:26:46;101321.71;;;5.23;65.01
84841;BME280;75088;53.114;18.040;2024-03-17T02:27:53;101325.77;;;5.23;64.47
84841;BME280;75088;53.114;18.040;2024-03-17T02:29:00;101326.30;;;5.24;64.19
84841;BME280;75088;53.114;18.040;2024-03-17T02:30:08;101322.27;;;5.24;64.25
84841;BME280;75088;53.114;18.040;2024-03-17T02:31:15;101316.30;;;5.25;64.16
84841;BME280;75088;53.114;18.040;2024-03-17T02:32:22;101320.71;;;5.26;64.20
84841;BME280;75088;53.114;18.040;2024-03-17T02:33:30;101319.48;;;5.26;63.65
84841;BME280;75088;53.114;18.040;2024-03-17T02:34:37;101317.23;;;5.28;63.86
84841;BME280;75088;53.114;18.040;2024-03-17T02:35:44;101317.59;;;5.28;63.75
84841;BME280;75088;53.114;18.040;2024-03-17T02:36:51;101314.96;;;5.28;63.41
84841;BME280;75088;53.114;18.040;2024-03-17T02:37:57;101313.91;;;5.29;63.38
84841;BME280;75088;53.114;18.040;2024-03-17T02:39:04;101309.00;;;5.30;63.26
84841;BME280;75088;53.114;18.040;2024-03-17T02:40:28;101310.75;;;5.30;63.47
84841;BME280;75088;53.114;18.040;2024-03-17T02:41:35;101315.68;;;5.29;63.29
84841;BME280;75088;53.114;18.040;2024-03-17T02:42:41;101319.21;;;5.30;63.39
84841;BME280;75088;53.114;18.040;2024-03-17T02:43:50;101316.22;;;5.30;63.45
84841;BME280;75088;53.114;18.040;2024-03-17T02:44:56;101322.55;;;5.29;63.08
84841;BME280;75088;53.114;18.040;2024-03-17T02:46:03;101319.73;;;5.29;62.92
84841;BME280;75088;53.114;18.040;2024-03-17T02:47:10;101317.79;;;5.29;63.16
84841;BME280;75088;53.114;18.040;2024-03-17T02:48:19;101314.96;;;5.28;63.07
84841;BME280;75088;53.114;18.040;2024-03-17T02:49:28;101313.36;;;5.28;63.01
84841;BME280;75088;53.114;18.040;2024-03-17T02:50:40;101314.08;;;5.28;63.23
84841;BME280;75088;53.114;18.040;2024-03-17T02:51:46;101310.89;;;5.28;62.93
84841;BME280;75088;53.114;18.040;2024-03-17T02:52:53;101313.69;;;5.27;62.84
84841;BME280;75088;53.114;18.040;2024-03-17T02:54:00;101318.28;;;5.27;63.10
84841;BME280;75088;53.114;18.040;2024-03-17T02:55:08;101311.40;;;5.27;63.18
84841;BME280;75088;53.114;18.040;2024-03-17T02:56:15;101318.77;;;5.25;62.59
84841;BME280;75088;53.114;18.040;2024-03-17T02:57:24;101306.95;;;5.25;62.71
84841;BME280;75088;53.114;18.040;2024-03-17T02:58:35;101300.27;;;5.25;63.17
84841;BME280;75088;53.114;18.040;2024-03-17T02:59:41;101291.80;;;5.24;62.92
84841;BME280;75088;53.114;18.040;2024-03-17T03:00:48;101295.81;;;5.23;62.64
84841;BME280;75088;53.114;18.040;2024-03-17T03:01:55;101285.42;;;5.23;62.64
84841;BME280;75088;53.114;18.040;2024-03-17T03:03:01;101279.05;;;5.21;62.90
84841;BME280;75088;53.114;18.040;2024-03-17T03:04:08;101279.39;;;5.20;62.76
84841;BME280;75088;53.114;18.040;2024-03-17T03:05:15;101275.15;;;5.19;62.85
84841;BME280;75088;53.114;18.040;2024-03-17T03:06:21;101274.08;;;5.18;63.26
84841;BME280;75088;53.114;18.040;2024-03-17T03:07:28;101277.41;;;5.17;63.11
84841;BME280;75088;53.114;18.040;2024-03-17T03:08:34;101291.84;;;5.17;63.26
84841;BME280;75088;53.114;18.040;2024-03-17T03:09:42;101295.17;;;5.16;63.19
84841;BME280;75088;53.114;18.040;2024-03-17T03:10:48;101293.58;;;5.15;63.31
84841;BME280;75088;53.114;18.040;2024-03-17T03:11:56;101303.95;;;5.15;63.20
84841;BME280;75088;53.114;18.040;2024-03-17T03:13:02;101304.64;;;5.14;63.39
84841;BME280;75088;53.114;18.040;2024-03-17T03:14:09;101306.56;;;5.14;63.42
84841;BME280;75088;53.114;18.040;2024-03-17T03:15:15;101311.68;;;5.14;63.55
84841;BME280;75088;53.114;18.040;2024-03-17T03:16:22;101311.13;;;5.13;63.51
84841;BME280;75088;53.114;18.040;2024-03-17T03:17:29;101312.89;;;5.13;63.66
84841;BME280;75088;53.114;18.040;2024-03-17T03:18:35;101316.41;;;5.13;63.57
84841;BME280;75088;53.114;18.040;2024-03-17T03:19:41;101313.40;;;5.12;63.60
84841;BME280;75088;53.114;18.040;2024-03-17T03:20:52;101317.45;;;5.12;63.64
84841;BME280;75088;53.114;18.040;2024-03-17T03:21:58;101306.89;;;5.12;63.68
84841;BME280;75088;53.114;18.040;2024-03-17T03:23:05;101306.52;;;5.11;63.67
84841;BME280;75088;53.114;18.040;2024-03-17T03:24:11;101310.57;;;5.12;63.92
84841;BME280;75088;53.114;18.040;2024-03-17T03:25:18;101312.83;;;5.10;63.86
84841;BME280;75088;53.114;18.040;2024-03-17T03:26:24;101313.16;;;5.09;63.94
84841;BME280;75088;53.114;18.040;2024-03-17T03:27:30;101303.14;;;5.09;63.99
84841;BME280;75088;53.114;18.040;2024-03-17T03:28:39;101306.11;;;5.09;64.23
84841;BME280;75088;53.114;18.040;2024-03-17T03:29:45;101311.54;;;5.07;64.18
84841;BME280;75088;53.114;18.040;2024-03-17T03:30:51;101309.44;;;5.08;64.22
84841;BME280;75088;53.114;18.040;2024-03-17T03:31:58;101322.45;;;5.06;64.07
84841;BME280;75088;53.114;18.040;2024-03-17T03:33:04;101305.55;;;5.07;64.26
84841;BME280;75088;53.114;18.040;2024-03-17T03:34:11;101308.70;;;5.06;64.30
84841;BME280;75088;53.114;18.040;2024-03-17T03:35:17;101308.50;;;5.05;64.15
84841;BME280;75088;53.114;18.040;2024-03-17T03:36:24;101307.45;;;5.06;64.34
84841;BME280;75088;53.114;18.040;2024-03-17T03:37:31;101309.91;;;5.05;64.49
84841;BME280;75088;53.114;18.040;2024-03-17T03:38:37;101308.68;;;5.05;64.52
84841;BME280;75088;53.114;18.040;2024-03-17T03:39:44;101306.02;;;5.05;64.50
84841;BME280;75088;53.114;18.040;2024-03-17T03:40:51;101307.77;;;5.04;64.59
84841;BME280;75088;53.114;18.040;2024-03-17T03:41:58;101294.75;;;5.04;64.54
84841;BME280;75088;53.114;18.040;2024-03-17T03:43:05;101302.14;;;5.04;64.53
84841;BME280;75088;53.114;18.040;2024-03-17T03:44:11;101299.11;;;5.03;64.57
84841;BME280;75088;53.114;18.040;2024-03-17T03:45:18;101302.46;;;5.03;64.59
84841;BME280;75088;53.114;18.040;2024-03-17T03:46:25;101301.04;;;5.03;64.61
84841;BME280;75088;53.114;18.040;2024-03-17T03:47:33;101299.11;;;5.02;64.66
84841;BME280;75088;53.114;18.040;2024-03-17T03:48:39;101297.70;;;5.02;64.66
84841;BME280;75088;53.114;18.040;2024-03-17T03:49:46;101298.56;;;5.02;64.67
84841;BME280;75088;53.114;18.040;2024-03-17T03:50:53;101296.63;;;5.02;64.63
84841;BME280;75088;53.114;18.040;2024-03-17T03:52:00;101297.49;;;5.01;64.57
84841;BME280;75088;53.114;18.040;2024-03-17T03:53:06;101303.49;;;5.02;64.74
84841;BME280;75088;53.114;18.040;2024-03-17T03:54:13;101302.95;;;5.01;64.68
84841;BME280;75088;53.114;18.040;2024-03-17T03:55:20;101296.25;;;5.01;64.66
84841;BME280;75088;53.114;18.040;2024-03-17T03:56:26;101300.33;;;5.02;64.67
84841;BME280;75088;53.114;18.040;2024-03-17T03:57:34;101304.21;;;5.02;64.55
84841;BME280;75088;53.114;18.040;2024-03-17T03:58:42;101304.56;;;5.02;64.65
84841;BME280;75088;53.114;18.040;2024-03-17T03:59:49;101305.63;;;5.03;64.55
84841;BME280;75088;53.114;18.040;2024-03-17T04:00:55;101299.98;;;5.03;64.65
84841;BME280;75088;53.114;18.040;2024-03-17T04:02:02;101304.74;;;5.02;64.78
84841;BME280;75088;53.114;18.040;2024-03-17T04:03:08;101304.04;;;5.03;64.67
84841;BME280;75088;53.114;18.040;2024-03-17T04:04:14;101298.93;;;5.03;64.66
84841;BME280;75088;53.114;18.040;2024-03-17T04:05:21;101305.95;;;5.02;64.73
84841;BME280;75088;53.114;18.040;2024-03-17T04:06:27;101308.79;;;5.02;64.59
84841;BME280;75088;53.114;18.040;2024-03-17T04:07:34;101309.69;;;5.03;64.71
84841;BME280;75088;53.114;18.040;2024-03-17T04:08:41;101323.80;;;5.04;64.64
84841;BME280;75088;53.114;18.040;2024-03-17T04:09:49;101312.89;;;5.04;64.59
84841;BME280;75088;53.114;18.040;2024-03-17T04:10:55;101320.13;;;5.05;64.94
84841;BME280;75088;53.114;18.040;2024-03-17T04:12:02;101324.52;;;5.04;65.11
84841;BME280;75088;53.114;18.040;2024-03-17T04:13:08;101326.92;;;5.02;65.56
84841;BME280;75088;53.114;18.040;2024-03-17T04:14:14;101333.73;;;5.00;66.05
84841;BME280;75088;53.114;18.040;2024-03-17T04:15:21;101344.91;;;4.96;66.51
84841;BME280;75088;53.114;18.040;2024-03-17T04:16:29;101344.13;;;4.91;67.09
84841;BME280;75088;53.114;18.040;2024-03-17T04:17:36;101345.98;;;4.87;67.46
84841;BME280;75088;53.114;18.040;2024-03-17T04:18:43;101350.28;;;4.83;68.30
84841;BME280;75088;53.114;18.040;2024-03-17T04:19:50;101351.75;;;4.78;68.60
84841;BME280;75088;53.114;18.040;2024-03-17T04:20:57;101358.46;;;4.72;69.00
84841;BME280;75088;53.114;18.040;2024-03-17T04:22:03;101357.28;;;4.66;69.62
84841;BME280;75088;53.114;18.040;2024-03-17T04:23:10;101360.50;;;4.60;70.32
84841;BME280;75088;53.114;18.040;2024-03-17T04:24:16;101357.84;;;4.53;70.77
84841;BME280;75088;53.114;18.040;2024-03-17T04:25:23;101360.46;;;4.45;70.88
84841;BME280;75088;53.114;18.040;2024-03-17T04:26:30;101364.88;;;4.37;70.80
84841;BME280;75088;53.114;18.040;2024-03-17T04:27:36;101363.52;;;4.32;70.67
84841;BME280;75088;53.114;18.040;2024-03-17T04:28:43;101362.90;;;4.29;70.80
84841;BME280;75088;53.114;18.040;2024-03-17T04:29:51;101368.30;;;4.27;71.34
84841;BME280;75088;53.114;18.040;2024-03-17T04:31:05;101369.33;;;4.26;71.52
84841;BME280;75088;53.114;18.040;2024-03-17T04:32:12;101366.50;;;4.25;71.27
84841;BME280;75088;53.114;18.040;2024-03-17T04:33:18;101361.40;;;4.25;71.23
84841;BME280;75088;53.114;18.040;2024-03-17T04:34:25;101364.04;;;4.25;71.21
84841;BME280;75088;53.114;18.040;2024-03-17T04:35:31;101365.27;;;4.25;71.27
84841;BME280;75088;53.114;18.040;2024-03-17T04:36:37;101370.38;;;4.26;71.36
84841;BME280;75088;53.114;18.040;2024-03-17T04:37:44;101362.13;;;4.26;71.07
84841;BME280;75088;53.114;18.040;2024-03-17T04:38:50;101359.84;;;4.26;70.94
84841;BME280;75088;53.114;18.040;2024-03-17T04:39:56;101363.02;;;4.26;71.20
84841;BME280;75088;53.114;18.040;2024-03-17T04:41:03;101360.73;;;4.27;71.16
84841;BME280;75088;53.114;18.040;2024-03-17T04:42:10;101361.98;;;4.27;70.81
84841;BME280;75088;53.114;18.040;2024-03-17T04:43:17;101364.10;;;4.28;70.93
84841;BME280;75088;53.114;18.040;2024-03-17T04:44:26;101360.75;;;4.28;70.98
84841;BME280;75088;53.114;18.040;2024-03-17T04:45:32;101357.95;;;4.28;70.86
84841;BME280;75088;53.114;18.040;2024-03-17T04:46:38;101366.91;;;4.27;70.86
84841;BME280;75088;53.114;18.040;2024-03-17T04:47:44;101361.60;;;4.26;71.00
84841;BME280;75088;53.114;18.040;2024-03-17T04:48:52;101363.00;;;4.26;71.05
84841;BME280;75088;53.114;18.040;2024-03-17T04:49:58;101363.91;;;4.27;70.93
84841;BME280;75088;53.114;18.040;2024-03-17T04:51:05;101366.88;;;4.26;70.79
84841;BME280;75088;53.114;18.040;2024-03-17T04:52:13;101368.98;;;4.26;71.17
84841;BME280;75088;53.114;18.040;2024-03-17T04:53:20;101370.07;;;4.27;71.11
84841;BME280;75088;53.114;18.040;2024-03-17T04:54:26;101369.20;;;4.28;70.99
84841;BME280;75088;53.114;18.040;2024-03-17T04:55:33;101370.06;;;4.27;71.23
84841;BME280;75088;53.114;18.040;2024-03-17T04:56:39;101371.46;;;4.27;71.17
84841;BME280;75088;53.114;18.040;2024-03-17T04:57:45;101377.81;;;4.28;71.00
84841;BME280;75088;53.114;18.040;2024-03-17T04:58:52;101370.77;;;4.27;71.17
84841;BME280;75088;53.114;18.040;2024-03-17T04:59:58;101376.95;;;4.28;71.18
84841;BME280;75088;53.114;18.040;2024-03-17T05:01:06;101377.98;;;4.27;71.12
84841;BME280;75088;53.114;18.040;2024-03-17T05:02:13;101378.51;;;4.27;71.16
84841;BME280;75088;53.114;18.040;2024-03-17T05:03:19;101382.20;;;4.27;71.16
84841;BME280;75088;53.114;18.040;2024-03-17T05:04:25;101382.89;;;4.26;71.29
84841;BME280;75088;53.114;18.040;2024-03-17T05:05:31;101383.79;;;4.27;71.30
84841;BME280;75088;53.114;18.040;2024-03-17T05:06:38;101388.88;;;4.27;71.24
84841;BME280;75088;53.114;18.040;2024-03-17T05:07:47;101386.59;;;4.27;71.30
84841;BME280;75088;53.114;18.040;2024-03-17T05:08:53;101381.85;;;4.27;71.19
84841;BME280;75088;53.114;18.040;2024-03-17T05:09:59;101387.84;;;4.27;71.12
84841;BME280;75088;53.114;18.040;2024-03-17T05:11:06;101395.70;;;4.26;70.89
84841;BME280;75088;53.114;18.040;2024-03-17T05:12:13;101399.02;;;4.25;70.94
84841;BME280;75088;53.114;18.040;2024-03-17T05:13:19;101396.02;;;4.24;70.69
84841;BME280;75088;53.114;18.040;2024-03-17T05:14:25;101396.36;;;4.24;70.71
84841;BME280;75088;53.114;18.040;2024-03-17T05:15:31;101398.45;;;4.23;70.99
84841;BME280;75088;53.114;18.040;2024-03-17T05:16:38;101404.80;;;4.24;70.75
84841;BME280;75088;53.114;18.040;2024-03-17T05:17:45;101405.48;;;4.23;70.68
84841;BME280;75088;53.114;18.040;2024-03-17T05:18:51;101405.85;;;4.23;70.35
84841;BME280;75088;53.114;18.040;2024-03-17T05:19:57;101401.27;;;4.24;70.47
84841;BME280;75088;53.114;18.040;2024-03-17T05:21:05;101407.09;;;4.24;70.48
84841;BME280;75088;53.114;18.040;2024-03-17T05:22:11;101402.48;;;4.23;70.10
84841;BME280;75088;53.114;18.040;2024-03-17T05:23:17;101406.38;;;4.24;69.78
84841;BME280;75088;53.114;18.040;2024-03-17T05:24:24;101406.55;;;4.24;69.28
84841;BME280;75088;53.114;18.040;2024-03-17T05:25:30;101410.04;;;4.22;69.31
84841;BME280;75088;53.114;18.040;2024-03-17T05:26:41;101414.41;;;4.22;69.43
84841;BME280;75088;53.114;18.040;2024-03-17T05:27:48;101419.67;;;4.21;69.40
84841;BME280;75088;53.114;18.040;2024-03-17T05:28:54;101416.67;;;4.21;68.57
84841;BME280;75088;53.114;18.040;2024-03-17T05:30:01;101425.84;;;4.21;68.62
84841;BME280;75088;53.114;18.040;2024-03-17T05:31:09;101423.34;;;4.20;68.67
84841;BME280;75088;53.114;18.040;2024-03-17T05:32:20;101436.18;;;4.20;68.89
84841;BME280;75088;53.114;18.040;2024-03-17T05:33:26;101434.07;;;4.20;68.66
84841;BME280;75088;53.114;18.040;2024-03-17T05:34:33;101433.73;;;4.20;68.58
84841;BME280;75088;53.114;18.040;2024-03-17T05:35:39;101436.06;;;4.22;68.41
84841;BME280;75088;53.114;18.040;2024-03-17T05:36:46;101436.92;;;4.21;68.43
84841;BME280;75088;53.114;18.040;2024-03-17T05:37:53;101439.21;;;4.21;68.49
84841;BME280;75088;53.114;18.040;2024-03-17T05:38:59;101442.02;;;4.21;68.40
84841;BME280;75088;53.114;18.040;2024-03-17T05:40:08;101443.44;;;4.22;68.47
84841;BME280;75088;53.114;18.040;2024-03-17T05:41:17;101441.83;;;4.21;68.37
84841;BME280;75088;53.114;18.040;2024-03-17T05:42:23;101447.30;;;4.22;68.60
84841;BME280;75088;53.114;18.040;2024-03-17T05:43:31;101448.17;;;4.22;68.30
84841;BME280;75088;53.114;18.040;2024-03-17T05:44:38;101449.76;;;4.21;67.98
84841;BME280;75088;53.114;18.040;2024-03-17T05:45:56;101450.60;;;4.20;68.15
84841;BME280;75088;53.114;18.040;2024-03-17T05:47:03;101454.83;;;4.20;68.09
84841;BME280;75088;53.114;18.040;2024-03-17T05:48:13;101455.35;;;4.20;68.12
84841;BME280;75088;53.114;18.040;2024-03-17T05:49:19;101454.67;;;4.21;67.78
84841;BME280;75088;53.114;18.040;2024-03-17T05:50:27;101456.05;;;4.20;68.11